Time;durP1;ratioP1;P1;durP2;ratioP2;P2;SDS_P1;SDS_P2;PMS_P1;PMS_P2;Temp;Humidity;BMP_temperature;BMP_pressure;BME280_temperature;BME280_humidity;BME280_pressure;Samples;Min_cycle;Max_cycle;Signal;HPM_P1;HPM_P2
2022/09/30 00:01:58;;;;;;;;;;;;;;;14.72;100.00;98925.63;4438798;32;34841;-76
2022/09/30 00:04:44;;;;;;;;;;;;;;;14.41;100.00;98915.34;4450611;32;35935;-76
2022/09/30 00:07:30;;;;;;;;;;;;;;;14.54;100.00;98914.16;4450297;32;35265;-76
2022/09/30 00:10:17;;;;;;;;;;;;;;;14.84;100.00;98920.00;4450744;32;34970;-76
2022/09/30 00:13:03;;;;;;;;;;;;;;;14.69;100.00;98915.31;4450832;32;34084;-76
2022/09/30 00:15:49;;;;;;;;;;;;;;;14.07;100.00;98908.53;4450820;32;33724;-76
2022/09/30 00:18:35;;;;;;;;;;;;;;;14.77;100.00;98900.53;4438385;32;35239;-76
2022/09/30 00:21:22;;;;;;;;;;;;;;;14.75;100.00;98902.84;4450732;32;35122;-77
2022/09/30 00:24:08;;;;;;;;;;;;;;;15.11;100.00;98906.44;4438676;32;35134;-77
2022/09/30 00:26:54;;;;;;;;;;;;;;;15.08;100.00;98907.16;4438568;32;34865;-77
2022/09/30 00:29:40;;;;;;;;;;;;;;;14.84;100.00;98903.44;4450611;32;35181;-77
2022/09/30 00:32:27;;;;;;;;;;;;;;;14.53;100.00;98895.19;4438853;32;34793;-77
2022/09/30 00:35:13;;;;;;;;;;;;;;;14.64;100.00;98895.47;4450686;32;35019;-77
2022/09/30 00:37:59;;;;;;;;;;;;;;;15.05;100.00;98896.84;4438784;32;34905;-77
2022/09/30 00:40:45;;;;;;;;;;;;;;;15.09;100.00;98888.66;4438372;32;34825;-77
2022/09/30 00:43:38;;;;;;;;;;;;;;;15.12;100.00;98888.75;4449724;32;34885;-77
2022/09/30 00:46:30;;;;;;;;;;;;;;;15.11;100.00;98892.62;4450507;32;34179;-77
2022/09/30 00:49:20;;;;;;;;;;;;;;;14.99;100.00;98885.28;4438365;32;35401;-77
2022/09/30 00:52:06;;;;;;;;;;;;;;;14.90;100.00;98881.91;4426820;32;36067;-77
2022/09/30 00:54:52;;;;;;;;;;;;;;;15.20;100.00;98879.47;4450464;32;35211;-76
2022/09/30 00:57:39;;;;;;;;;;;;;;;15.22;100.00;98882.63;4438580;32;32075;-77
2022/09/30 01:00:26;;;;;;;;;;;;;;;15.29;100.00;98873.75;4438442;32;35540;-77
2022/09/30 01:03:11;;;;;;;;;;;;;;;15.35;100.00;98877.81;4450488;32;34803;-77
2022/09/30 01:05:58;;;;;;;;;;;;;;;15.32;100.00;98880.50;4438206;32;34958;-76
2022/09/30 01:08:44;;;;;;;;;;;;;;;15.38;100.00;98877.09;4450429;32;34197;-77
2022/09/30 01:11:30;;;;;;;;;;;;;;;15.29;100.00;98887.53;4438525;32;35039;-77
2022/09/30 01:14:20;;;;;;;;;;;;;;;14.77;100.00;98889.50;4438371;32;34017;-77
2022/09/30 01:17:30;;;;;;;;;;;;;;;15.17;100.00;98885.72;4438132;32;35445;-77
2022/09/30 01:20:20;;;;;;;;;;;;;;;15.48;100.00;98892.25;4450171;32;35211;-77
2022/09/30 01:23:21;;;;;;;;;;;;;;;15.46;100.00;98891.84;4438376;32;35804;-77
2022/09/30 01:26:07;;;;;;;;;;;;;;;15.33;100.00;98896.69;4450244;32;35224;-77
2022/09/30 01:29:20;;;;;;;;;;;;;;;14.82;100.00;98880.94;4449892;32;34935;-77
2022/09/30 01:32:09;;;;;;;;;;;;;;;14.77;100.00;98872.97;4438054;32;34921;-77
2022/09/30 01:35:07;;;;;;;;;;;;;;;15.44;100.00;98883.13;4450186;32;35600;-77
2022/09/30 01:37:53;;;;;;;;;;;;;;;15.27;100.00;98901.69;4450091;32;35250;-77
2022/09/30 01:40:42;;;;;;;;;;;;;;;14.80;100.00;98888.00;4450030;32;35023;-78
2022/09/30 01:43:31;;;;;;;;;;;;;;;14.90;100.00;98887.44;4450145;32;34504;-77
2022/09/30 01:46:19;;;;;;;;;;;;;;;14.98;100.00;98885.66;4450003;32;35718;-77
2022/09/30 01:49:24;;;;;;;;;;;;;;;14.98;100.00;98882.88;4449962;32;34909;-77
2022/09/30 01:52:14;;;;;;;;;;;;;;;15.00;100.00;98858.50;4449894;32;35000;-78
2022/09/30 01:55:00;;;;;;;;;;;;;;;15.34;100.00;98861.59;4422559;32;34096;-77
2022/09/30 01:57:52;;;;;;;;;;;;;;;15.46;100.00;98854.00;4434627;32;34493;-77
2022/09/30 02:00:38;;;;;;;;;;;;;;;15.28;100.00;98856.38;4433188;32;34767;-77
2022/09/30 02:03:30;;;;;;;;;;;;;;;15.06;100.00;98857.06;4433305;32;35796;-77
2022/09/30 02:06:17;;;;;;;;;;;;;;;15.41;100.00;98854.28;4432576;32;33833;-77
2022/09/30 02:09:05;;;;;;;;;;;;;;;15.38;100.00;98848.69;4423048;32;34638;-77
2022/09/30 02:11:51;;;;;;;;;;;;;;;15.38;100.00;98852.25;4434555;32;35395;-77
2022/09/30 02:14:45;;;;;;;;;;;;;;;15.63;100.00;98850.00;4433382;32;36426;-77
2022/09/30 02:17:32;;;;;;;;;;;;;;;15.52;100.00;98843.47;4433609;32;34217;-78
2022/09/30 02:20:20;;;;;;;;;;;;;;;14.99;100.00;98845.88;4433206;32;35029;-78
2022/09/30 02:23:17;;;;;;;;;;;;;;;15.12;100.00;98866.66;4431548;32;35836;-78
2022/09/30 02:26:05;;;;;;;;;;;;;;;15.11;100.00;98886.31;4433671;32;35617;-78
2022/09/30 02:29:04;;;;;;;;;;;;;;;14.79;100.00;98887.16;4433442;32;34898;-78
2022/09/30 02:31:51;;;;;;;;;;;;;;;15.00;100.00;98891.62;4420422;32;34990;-78
2022/09/30 02:34:38;;;;;;;;;;;;;;;14.69;100.00;98870.38;4419177;32;35096;-78
2022/09/30 02:37:31;;;;;;;;;;;;;;;14.70;100.00;98859.00;4432927;32;35688;-78
2022/09/30 02:40:28;;;;;;;;;;;;;;;14.00;100.00;98834.75;4432593;32;33622;-77
2022/09/30 02:43:15;;;;;;;;;;;;;;;13.13;100.00;98813.44;4433184;32;34916;-78
2022/09/30 02:46:06;;;;;;;;;;;;;;;13.96;100.00;98822.84;4433078;32;35195;-77
2022/09/30 02:48:52;;;;;;;;;;;;;;;14.76;100.00;98837.47;4433040;32;35777;-78
2022/09/30 02:51:44;;;;;;;;;;;;;;;14.91;100.00;98839.38;4433742;32;35017;-78
2022/09/30 02:54:36;;;;;;;;;;;;;;;14.99;100.00;98838.38;4427061;32;34917;-77
2022/09/30 02:57:35;;;;;;;;;;;;;;;15.41;100.00;98817.59;4431724;32;34753;-78
2022/09/30 03:00:21;;;;;;;;;;;;;;;15.24;100.00;98825.13;4434157;32;35839;-78
2022/09/30 03:03:10;;;;;;;;;;;;;;;15.28;100.00;98830.72;4422521;32;34801;-78
2022/09/30 03:05:56;;;;;;;;;;;;;;;15.16;100.00;98817.88;4411486;32;34986;-78
2022/09/30 03:08:42;;;;;;;;;;;;;;;15.23;100.00;98818.03;4412723;32;35282;-78
2022/09/30 03:11:29;;;;;;;;;;;;;;;15.49;100.00;98813.81;4424035;32;35157;-78
2022/09/30 03:14:33;;;;;;;;;;;;;;;15.13;100.00;98812.28;4423930;32;35122;-78
2022/09/30 03:17:25;;;;;;;;;;;;;;;15.48;100.00;98812.22;4424178;32;35640;-78
2022/09/30 03:20:11;;;;;;;;;;;;;;;15.74;100.00;98809.63;4423992;32;34791;-78
2022/09/30 03:23:17;;;;;;;;;;;;;;;15.51;100.00;98811.47;4435667;32;34930;-78
2022/09/30 03:26:14;;;;;;;;;;;;;;;15.82;100.00;98821.56;4435693;32;34166;-78
2022/09/30 03:29:03;;;;;;;;;;;;;;;15.43;100.00;98835.41;4424083;32;34975;-78
2022/09/30 03:31:51;;;;;;;;;;;;;;;15.42;100.00;98841.28;4435327;32;36321;-78
2022/09/30 03:34:45;;;;;;;;;;;;;;;14.22;100.00;98847.12;4424094;32;35650;-78
2022/09/30 03:37:44;;;;;;;;;;;;;;;14.71;100.00;98841.28;4413276;32;34846;-78
2022/09/30 03:40:39;;;;;;;;;;;;;;;15.29;100.00;98837.88;4435605;32;34910;-78
2022/09/30 03:43:32;;;;;;;;;;;;;;;15.09;100.00;98839.00;4435291;32;34918;-78
2022/09/30 03:46:26;;;;;;;;;;;;;;;14.65;100.00;98841.91;4423006;32;35693;-79
2022/09/30 03:49:13;;;;;;;;;;;;;;;15.10;100.00;98840.59;4423150;32;34047;-78
2022/09/30 03:51:59;;;;;;;;;;;;;;;14.86;100.00;98847.94;4423882;32;34980;-78
2022/09/30 03:54:56;;;;;;;;;;;;;;;14.95;100.00;98825.69;4423549;32;35825;-78
2022/09/30 03:57:43;;;;;;;;;;;;;;;15.08;100.00;98835.41;4435294;32;34902;-78
2022/09/30 04:00:31;;;;;;;;;;;;;;;15.39;100.00;98848.31;4435373;32;34931;-79
2022/09/30 04:03:18;;;;;;;;;;;;;;;15.27;100.00;98831.91;4435120;32;34628;-79
2022/09/30 04:06:04;;;;;;;;;;;;;;;15.28;100.00;98848.09;4423215;32;35161;-78
2022/09/30 04:08:52;;;;;;;;;;;;;;;14.92;100.00;98845.72;4435133;32;35128;-79
2022/09/30 04:11:38;;;;;;;;;;;;;;;15.06;100.00;98846.81;4423684;32;34984;-79
2022/09/30 04:14:26;;;;;;;;;;;;;;;15.22;100.00;98846.75;4412634;32;35779;-78
2022/09/30 04:17:13;;;;;;;;;;;;;;;15.38;100.00;98851.44;4412792;32;34948;-78
2022/09/30 04:19:58;;;;;;;;;;;;;;;15.19;100.00;98844.72;4423476;32;35675;-79
2022/09/30 04:22:44;;;;;;;;;;;;;;;15.61;100.00;98843.25;4423186;32;35007;-78
2022/09/30 04:25:30;;;;;;;;;;;;;;;15.39;100.00;98847.50;4434930;32;35016;-78
2022/09/30 04:28:16;;;;;;;;;;;;;;;14.61;100.00;98848.16;4435033;32;34838;-79
2022/09/30 04:31:03;;;;;;;;;;;;;;;15.27;100.00;98846.50;4434009;32;34911;-79
2022/09/30 04:33:49;;;;;;;;;;;;;;;15.50;100.00;98843.03;4434880;32;34841;-78
2022/09/30 04:36:35;;;;;;;;;;;;;;;15.51;100.00;98856.47;4412453;32;34927;-78
2022/09/30 04:39:21;;;;;;;;;;;;;;;14.90;100.00;98864.56;4423113;32;34732;-79
2022/09/30 04:42:08;;;;;;;;;;;;;;;15.30;100.00;98880.84;4423249;32;34933;-79
2022/09/30 04:44:54;;;;;;;;;;;;;;;15.47;100.00;98879.63;4434886;32;34845;-79
2022/09/30 04:47:44;;;;;;;;;;;;;;;15.73;100.00;98885.34;4434793;32;34931;-78
2022/09/30 04:50:30;;;;;;;;;;;;;;;15.67;100.00;98892.28;4431206;32;115166;-78
2022/09/30 04:53:17;;;;;;;;;;;;;;;15.55;100.00;98900.72;4434779;32;34535;-79
2022/09/30 04:56:02;;;;;;;;;;;;;;;15.52;100.00;98890.41;4434617;32;33723;-78
2022/09/30 04:58:49;;;;;;;;;;;;;;;15.79;100.00;98888.59;4428292;32;35930;-78
2022/09/30 05:01:34;;;;;;;;;;;;;;;15.94;100.00;98892.47;4438424;32;36213;-79
2022/09/30 05:04:20;;;;;;;;;;;;;;;15.80;100.00;98892.19;4438239;32;35169;-79
2022/09/30 05:07:07;;;;;;;;;;;;;;;15.35;100.00;98888.06;4450413;32;34872;-79
2022/09/30 05:09:54;;;;;;;;;;;;;;;15.44;100.00;98897.72;4450310;32;34866;-79
2022/09/30 05:12:40;;;;;;;;;;;;;;;15.79;100.00;98893.34;4450413;32;35247;-79
2022/09/30 05:15:26;;;;;;;;;;;;;;;15.68;100.00;98888.41;4450384;32;34904;-79
2022/09/30 05:18:12;;;;;;;;;;;;;;;15.71;100.00;98895.16;4450257;32;34056;-78
2022/09/30 05:20:58;;;;;;;;;;;;;;;15.28;100.00;98896.97;4438332;32;34934;-79
2022/09/30 05:23:44;;;;;;;;;;;;;;;15.85;100.00;98898.22;4438365;32;35171;-79
2022/09/30 05:26:31;;;;;;;;;;;;;;;15.95;100.00;98903.13;4450186;32;35674;-79
2022/09/30 05:29:17;;;;;;;;;;;;;;;15.75;100.00;98904.31;4447717;32;33729;-79
2022/09/30 05:32:04;;;;;;;;;;;;;;;15.72;100.00;98911.37;4438067;32;35705;-78
2022/09/30 05:34:50;;;;;;;;;;;;;;;15.71;100.00;98912.53;4449839;32;35986;-81
2022/09/30 05:37:37;;;;;;;;;;;;;;;15.50;100.00;98906.50;4438441;32;35456;-78
2022/09/30 05:40:22;;;;;;;;;;;;;;;15.69;100.00;98905.78;4427379;32;33689;-79
2022/09/30 05:43:08;;;;;;;;;;;;;;;15.80;100.00;98906.00;4449835;32;34913;-78
2022/09/30 05:45:55;;;;;;;;;;;;;;;15.71;100.00;98909.78;4438576;32;33885;-78
2022/09/30 05:48:41;;;;;;;;;;;;;;;15.55;100.00;98913.72;4438233;32;34910;-78
2022/09/30 05:51:27;;;;;;;;;;;;;;;15.34;100.00;98916.78;4427237;32;34086;-78
2022/09/30 05:54:13;;;;;;;;;;;;;;;15.51;100.00;98914.44;4437960;32;34530;-77
2022/09/30 05:56:59;;;;;;;;;;;;;;;15.78;100.00;98919.37;4438205;32;36146;-78
2022/09/30 05:59:46;;;;;;;;;;;;;;;15.72;100.00;98911.37;4437858;32;35090;-79
2022/09/30 06:02:32;;;;;;;;;;;;;;;15.95;100.00;98916.16;4450274;32;34746;-78
2022/09/30 06:05:20;;;;;;;;;;;;;;;16.02;100.00;98913.53;4449917;32;35186;-79
2022/09/30 06:08:06;;;;;;;;;;;;;;;15.92;100.00;98923.22;4449901;32;35199;-78
2022/09/30 06:10:53;;;;;;;;;;;;;;;15.60;100.00;98925.28;4439682;32;34488;-78
2022/09/30 06:13:39;;;;;;;;;;;;;;;16.11;100.00;98922.41;4449701;32;34817;-79
2022/09/30 06:16:26;;;;;;;;;;;;;;;15.94;100.00;98920.09;4437937;32;34857;-78
2022/09/30 06:19:12;;;;;;;;;;;;;;;16.03;100.00;98923.44;4449880;32;35180;-78
2022/09/30 06:21:59;;;;;;;;;;;;;;;15.48;100.00;98930.91;4437899;32;34911;-79
2022/09/30 06:24:45;;;;;;;;;;;;;;;15.87;100.00;98926.25;4437856;32;34126;-78
2022/09/30 06:27:34;;;;;;;;;;;;;;;15.69;100.00;98930.62;4437690;32;34895;-78
2022/09/30 06:30:20;;;;;;;;;;;;;;;15.70;100.00;98935.78;4449587;32;35799;-79
2022/09/30 06:33:07;;;;;;;;;;;;;;;16.06;100.00;98944.00;4449679;32;34933;-78
2022/09/30 06:35:52;;;;;;;;;;;;;;;15.03;100.00;98957.09;4449814;32;34616;-79
2022/09/30 06:38:39;;;;;;;;;;;;;;;14.23;100.00;98950.69;4437862;32;35840;-79
2022/09/30 06:41:26;;;;;;;;;;;;;;;14.66;100.00;98960.12;4425662;32;34707;-79
2022/09/30 06:44:12;;;;;;;;;;;;;;;15.30;100.00;98966.41;4448689;32;34932;-79
2022/09/30 06:46:58;;;;;;;;;;;;;;;15.89;100.00;98953.53;4422436;32;33958;-79
2022/09/30 06:49:44;;;;;;;;;;;;;;;15.97;100.00;98958.03;4449465;32;34969;-79
2022/09/30 06:52:34;;;;;;;14.45;8.82;;;;;;;16.03;100.00;98967.62;4449408;32;35179;-79
2022/09/30 06:55:23;;;;;;;10.80;8.05;;;;;;;16.39;100.00;98965.56;4437071;32;34865;-78
2022/09/30 06:58:13;;;;;;;11.75;8.32;;;;;;;16.42;100.00;98975.88;4448811;32;34491;-79
2022/09/30 07:01:02;;;;;;;12.23;8.07;;;;;;;16.14;100.00;98978.91;4437255;32;35657;-79
2022/09/30 07:03:48;;;;;;;12.23;7.72;;;;;;;16.16;100.00;98984.84;4437005;32;34862;-79
2022/09/30 07:06:40;;;;;;;;;;;;;;;16.10;100.00;98976.06;4427750;32;34206;-79
2022/09/30 07:09:26;;;;;;;10.98;8.10;;;;;;;16.34;100.00;98985.22;4449027;32;34865;-78
2022/09/30 07:12:12;;;;;;;11.00;7.35;;;;;;;16.32;100.00;98982.03;4426234;32;35503;-78
2022/09/30 07:14:58;;;;;;;10.85;7.28;;;;;;;16.27;100.00;98985.06;4448793;32;34664;-78
2022/09/30 07:17:50;;;;;;;13.10;7.85;;;;;;;16.54;100.00;98995.09;4436681;32;35478;-79
2022/09/30 07:20:36;;;;;;;;;;;;;;;16.27;100.00;98990.59;4449305;32;34772;-78
2022/09/30 07:23:26;;;;;;;19.23;8.05;;;;;;;16.54;100.00;99000.63;4448862;32;33157;-79
2022/09/30 07:26:14;;;;;;;10.27;6.97;;;;;;;16.40;100.00;99000.34;4448599;32;35900;-79
2022/09/30 07:29:01;;;;;;;10.63;7.35;;;;;;;16.10;100.00;98998.16;4448704;32;34762;-78
2022/09/30 07:31:47;;;;;;;9.98;7.00;;;;;;;16.10;100.00;99008.41;4425920;32;35055;-78
2022/09/30 07:34:35;;;;;;;11.45;7.32;;;;;;;16.03;100.00;99011.84;4448063;32;35411;-78
2022/09/30 07:37:23;;;;;;;9.45;7.00;;;;;;;16.11;100.00;99018.34;4425694;32;35561;-78
2022/09/30 07:40:10;;;;;;;10.82;7.85;;;;;;;16.32;100.00;99016.00;4436366;32;35617;-78
2022/09/30 07:42:57;;;;;;;12.43;7.35;;;;;;;16.05;100.00;99023.34;4436391;32;34121;-78
2022/09/30 07:45:44;;;;;;;9.57;7.10;;;;;;;15.61;100.00;99026.28;4448284;32;34297;-78
2022/09/30 07:48:50;;;;;;;11.82;8.02;;;;;;;15.99;100.00;99026.75;4428516;32;35948;-77
2022/09/30 07:51:39;;;;;;;12.30;8.70;;;;;;;15.39;100.00;99026.94;4424311;32;34745;-78
2022/09/30 07:54:28;;;;;;;12.35;8.65;;;;;;;16.10;100.00;99036.06;4428322;32;34934;-78
2022/09/30 07:57:15;;;;;;;12.15;8.95;;;;;;;16.08;100.00;99039.19;4450269;32;34748;-78
2022/09/30 08:00:01;;;;;;;13.05;9.90;;;;;;;16.26;100.00;99036.00;4450463;32;34567;-78
2022/09/30 08:03:07;;;;;;;13.32;9.73;;;;;;;16.15;100.00;99033.81;4441211;32;34327;-78
2022/09/30 08:05:53;;;;;;;13.23;9.68;;;;;;;16.43;100.00;99043.84;4427392;32;33719;-78
2022/09/30 08:08:42;;;;;;;14.38;10.90;;;;;;;16.27;100.00;99040.34;4450150;32;34770;-78
2022/09/30 08:11:32;;;;;;;13.07;10.18;;;;;;;16.26;100.00;99044.31;4438608;32;34499;-78
2022/09/30 08:14:24;;;;;;;15.02;11.75;;;;;;;16.64;100.00;99055.31;4430334;32;34592;-78
2022/09/30 08:17:10;;;;;;;;;;;;;;;16.70;100.00;99055.03;4438851;32;35146;-78
2022/09/30 08:19:56;;;;;;;15.50;11.50;;;;;;;16.41;100.00;99051.72;4450499;32;34573;-78
2022/09/30 08:22:43;;;;;;;18.52;12.20;;;;;;;16.66;100.00;99066.03;4450042;32;34556;-78
2022/09/30 08:25:29;;;;;;;19.95;16.25;;;;;;;15.77;100.00;99067.72;4448999;32;34606;-78
2022/09/30 08:28:17;;;;;;;21.70;17.95;;;;;;;15.61;100.00;99075.97;4449262;32;33978;-78
2022/09/30 08:31:09;;;;;;;21.20;17.87;;;;;;;15.59;100.00;99075.53;4448869;32;34546;-77
2022/09/30 08:33:55;;;;;;;23.12;19.08;;;;;;;15.73;100.00;99075.91;4448980;32;35260;-78
2022/09/30 08:36:41;;;;;;;23.50;19.10;;;;;;;14.78;100.00;99084.13;4449151;32;33782;-78
2022/09/30 08:39:27;;;;;;;22.83;19.83;;;;;;;14.78;100.00;99084.13;4448998;32;33280;-77
2022/09/30 08:42:13;;;;;;;26.17;20.77;;;;;;;14.16;100.00;99089.03;4437197;32;33747;-78
2022/09/30 08:45:35;;;;;;;22.33;18.30;;;;;;;15.06;100.00;99088.81;4439638;32;34052;-78
2022/09/30 08:48:37;;;;;;;19.62;16.35;;;;;;;15.20;100.00;99102.97;4448795;32;33518;-80
2022/09/30 08:51:36;;;;;;;19.37;16.70;;;;;;;15.69;100.00;99108.16;4436769;32;34193;-78
2022/09/30 08:54:25;;;;;;;21.53;17.53;;;;;;;15.36;100.00;99102.19;4425914;32;34274;-78
2022/09/30 08:57:11;;;;;;;18.90;16.23;;;;;;;14.31;100.00;99115.06;4436690;32;34994;-79
2022/09/30 09:00:04;;;;;;;18.92;15.60;;;;;;;14.45;100.00;99106.41;4437103;32;33429;-79
2022/09/30 09:02:53;;;;;;;17.33;15.18;;;;;;;14.15;100.00;99100.41;4426568;32;34289;-79
2022/09/30 09:06:23;;;;;;;16.83;14.20;;;;;;;14.23;100.00;99109.69;4436078;32;34670;-79
2022/09/30 09:09:38;;;;;;;16.33;14.30;;;;;;;14.90;100.00;99108.09;4448606;32;34146;-79
2022/09/30 09:12:31;;;;;;;13.82;10.50;;;;;;;15.33;100.00;99113.94;4436683;32;33680;-79
2022/09/30 09:15:24;;;;;;;11.20;9.20;;;;;;;15.41;100.00;99112.97;4425796;32;34202;-79
2022/09/30 09:18:17;;;;;;;11.93;8.75;;;;;;;15.05;100.00;99110.09;4448452;32;33489;-79
2022/09/30 09:21:34;;;;;;;10.73;8.45;;;;;;;15.15;100.00;99125.31;4443448;32;34234;-79
2022/09/30 09:24:24;;;;;;;8.45;6.68;;;;;;;15.57;100.00;99130.34;4436484;32;34855;-80
2022/09/30 09:27:19;;;;;;;8.60;6.68;;;;;;;15.32;100.00;99126.16;4448856;32;32308;-78
2022/09/30 09:30:11;;;;;;;9.82;6.68;;;;;;;15.14;100.00;99139.44;4448362;32;33805;-78
2022/09/30 09:33:01;;;;;;;5.57;4.15;;;;;;;15.35;100.00;99142.78;4448880;32;34121;-79
2022/09/30 09:36:17;;;;;;;6.22;4.57;;;;;;;15.07;100.00;99151.91;4436815;32;33715;-79
2022/09/30 09:39:06;;;;;;;7.87;5.40;;;;;;;15.63;100.00;99156.53;4436870;32;33251;-80
2022/09/30 09:42:06;;;;;;;7.72;5.28;;;;;;;14.98;100.00;99158.75;4448711;32;33501;-78
2022/09/30 09:45:02;;;;;;;10.23;7.03;;;;;;;14.77;100.00;99150.66;4436487;32;35122;-79
2022/09/30 09:47:52;;;;;;;10.00;7.40;;;;;;;15.11;100.00;99152.00;4436488;32;33805;-79
2022/09/30 09:50:59;;;;;;;6.82;5.30;;;;;;;15.09;100.00;99161.81;4436629;32;33447;-78
2022/09/30 09:53:48;;;;;;;7.20;5.57;;;;;;;15.34;100.00;99162.44;4435741;32;33632;-78
2022/09/30 09:56:36;;;;;;;8.00;6.05;;;;;;;15.12;100.00;99159.12;4448489;32;33792;-79
2022/09/30 09:59:22;;;;;;;8.70;6.22;;;;;;;15.26;100.00;99176.06;4448570;32;34360;-79
2022/09/30 10:02:28;;;;;;;8.52;5.62;;;;;;;15.15;100.00;99176.94;4448489;32;33273;-79
2022/09/30 10:05:25;;;;;;;8.18;5.43;;;;;;;15.27;100.00;99169.38;4448122;32;33467;-79
2022/09/30 10:08:20;;;;;;;7.60;5.30;;;;;;;15.62;100.00;99165.94;4436624;32;34681;-79
2022/09/30 10:11:19;;;;;;;6.28;4.60;;;;;;;15.50;100.00;99171.56;4436733;32;33282;-79
2022/09/30 10:14:16;;;;;;;7.10;4.70;;;;;;;15.48;100.00;99171.09;4436479;32;32879;-79
2022/09/30 10:17:04;;;;;;;8.60;5.67;;;;;;;14.97;100.00;99166.22;4420615;32;33531;-78
2022/09/30 10:19:53;;;;;;;6.25;4.97;;;;;;;15.59;100.00;99171.38;4448244;32;34108;-79
2022/09/30 10:22:39;;;;;;;5.57;4.37;;;;;;;16.30;100.00;99189.69;4425301;32;32664;-79
2022/09/30 10:25:25;;;;;;;5.77;4.10;;;;;;;15.30;100.00;99188.00;4436404;32;33027;-79
2022/09/30 10:28:22;;;;;;;6.53;4.10;;;;;;;15.44;100.00;99181.25;4448332;32;33399;-79
2022/09/30 10:31:17;;;;;;;7.03;4.30;;;;;;;15.20;100.00;99185.78;4436204;32;34012;-79
2022/09/30 10:34:23;;;;;;;6.65;4.20;;;;;;;15.47;100.00;99197.12;4436024;32;34259;-80
2022/09/30 10:37:14;;;;;;;5.67;3.47;;;;;;;15.63;100.00;99205.44;4447937;32;33341;-79
2022/09/30 10:40:05;;;;;;;4.75;2.97;;;;;;;16.25;100.00;99205.75;4436213;32;34696;-79
2022/09/30 10:42:51;;;;;;;4.15;2.85;;;;;;;16.42;100.00;99200.66;4436207;32;34211;-78
2022/09/30 10:45:40;;;;;;;4.23;2.90;;;;;;;16.01;100.00;99206.78;4436025;32;34873;-78
2022/09/30 10:48:30;;;;;;;4.40;3.40;;;;;;;16.02;100.00;99223.00;4436237;32;33205;-78
2022/09/30 10:51:32;;;;;;;4.95;2.83;;;;;;;16.08;100.00;99205.00;4436420;32;33813;-79
2022/09/30 10:54:59;;;;;;;4.95;2.75;;;;;;;16.45;100.00;99218.50;4432969;32;34175;-79
2022/09/30 10:57:48;;;;;;;3.95;2.60;;;;;;;16.37;100.00;99214.75;4424973;32;33684;-79
2022/09/30 11:00:36;;;;;;;3.62;2.53;;;;;;;16.74;100.00;99219.12;4447873;32;33349;-78
2022/09/30 11:03:48;;;;;;;4.93;2.78;;;;;;;16.53;100.00;99231.31;4427088;32;34680;-78
2022/09/30 11:06:38;;;;;;;4.85;2.40;;;;;;;16.68;100.00;99242.69;4435899;32;33741;-78
2022/09/30 11:09:34;;;;;;;4.30;2.33;;;;;;;15.92;100.00;99245.66;4423959;32;33408;-78
2022/09/30 11:12:29;;;;;;;3.08;1.73;;;;;;;16.51;100.00;99266.03;4435992;32;33379;-77
2022/09/30 11:15:21;;;;;;;2.25;1.60;;;;;;;16.77;100.00;99273.75;4430105;32;33484;-77
2022/09/30 11:18:18;;;;;;;5.07;1.98;;;;;;;16.60;100.00;99284.03;4447547;32;34108;-79
2022/09/30 11:21:44;;;;;;;3.10;1.35;;;;;;;16.92;100.00;99275.66;4425581;32;34910;-79
2022/09/30 11:24:40;;;;;;;13.13;9.60;;;;;;;16.54;100.00;99296.53;4430840;32;33229;-79
2022/09/30 11:27:42;;;;;;;1.52;1.10;;;;;;;15.92;100.00;99301.72;4435852;32;33422;-77
2022/09/30 11:30:36;;;;;;;2.20;1.42;;;;;;;16.34;100.00;99300.41;4449059;32;34775;-77
2022/09/30 11:34:19;;;;;;;3.28;1.87;;;;;;;16.57;100.00;99312.41;4449446;32;33509;-77
2022/09/30 11:37:36;;;;;;;2.42;1.20;;;;;;;16.66;100.00;99317.75;4370619;32;33916;-77
2022/09/30 11:41:00;;;;;;;1.80;0.83;;;;;;;16.14;100.00;99318.84;4375002;32;33392;-77
2022/09/30 11:44:04;;;;;;;2.45;0.98;;;;;;;16.15;100.00;99326.78;4426622;32;34083;-77
2022/09/30 11:47:07;;;;;;;1.15;0.80;;;;;;;16.12;100.00;99332.22;4449145;32;34099;-78
2022/09/30 11:50:06;;;;;;;8.88;7.05;;;;;;;16.33;100.00;99334.72;4449187;32;33428;-76
2022/09/30 11:53:29;;;;;;;2.17;1.37;;;;;;;15.79;100.00;99338.03;4449167;32;34752;-77
2022/09/30 11:56:47;;;;;;;1.60;0.80;;;;;;;15.91;100.00;99354.56;4449242;32;32896;-76
2022/09/30 11:59:46;;;;;;;1.62;1.25;;;;;;;16.23;100.00;99352.66;4448194;32;33678;-77
2022/09/30 12:02:39;;;;;;;2.00;0.80;;;;;;;15.94;100.00;99351.91;4426455;32;34067;-77
2022/09/30 12:05:29;;;;;;;1.65;0.90;;;;;;;16.21;100.00;99367.97;4437609;32;34262;-77
2022/09/30 12:08:20;;;;;;;1.60;1.10;;;;;;;16.68;100.00;99362.47;4426595;32;34826;-77
2022/09/30 12:11:10;;;;;;;1.58;0.98;;;;;;;16.99;100.00;99369.94;4423323;32;33680;-77
2022/09/30 12:14:02;;;;;;;0.80;0.60;;;;;;;17.29;100.00;99369.41;4436411;32;33889;-77
2022/09/30 12:16:50;;;;;;;1.55;0.70;;;;;;;16.88;100.00;99374.41;4437305;32;33628;-78
2022/09/30 12:19:44;;;;;;;1.42;0.70;;;;;;;16.40;100.00;99384.69;4437543;32;34017;-77
2022/09/30 12:22:42;;;;;;;1.35;0.80;;;;;;;16.94;100.00;99378.50;4432759;32;35194;-78
2022/09/30 12:25:31;;;;;;;4.70;3.55;;;;;;;17.17;100.00;99380.59;4426190;32;32834;-77
2022/09/30 12:31:43;;;;;;;1.05;0.70;;;;;;;18.01;100.00;99393.03;4440525;32;34656;-77
2022/09/30 12:34:32;;;;;;;;;;;;;;;17.72;100.00;99396.00;4438706;32;35390;-78
2022/09/30 12:37:25;;;;;;;;;;;;;;;18.39;100.00;99390.19;4450695;32;34093;-80
2022/09/30 12:40:19;;;;;;;;;;;;;;;17.45;100.00;99397.03;4426924;32;35808;-78
2022/09/30 12:43:09;;;;;;;;;;;;;;;17.32;100.00;99396.34;4438429;32;35178;-80
2022/09/30 12:46:01;;;;;;;;;;;;;;;16.93;100.00;99398.22;4438848;32;35677;-78
2022/09/30 12:48:50;;;;;;;;;;;;;;;17.13;100.00;99402.66;4439155;32;34071;-79
2022/09/30 12:51:40;;;;;;;;;;;;;;;16.51;100.00;99405.09;4450706;32;35941;-78
2022/09/30 12:54:26;;;;;;;;;;;;;;;16.64;100.00;99405.81;4438744;32;35356;-77
2022/09/30 12:57:12;;;;;;;;;;;;;;;17.61;100.00;99410.81;4450734;32;34907;-78
2022/09/30 13:00:17;;;;;;;;;;;;;;;17.11;100.00;99427.16;4432223;32;33931;-79
2022/09/30 13:03:04;;;;;;;;;;;;;;;16.99;100.00;99432.75;4422981;32;35823;-78
2022/09/30 13:05:51;;;;;;;;;;;;;;;17.00;100.00;99437.16;4438469;32;36171;-78
2022/09/30 13:08:42;;;;;;;;;;;;;;;16.71;100.00;99438.41;4438657;32;35455;-78
2022/09/30 13:11:31;;;;;;;;;;;;;;;16.97;100.00;99429.56;4450296;32;33723;-78
2022/09/30 13:14:21;;;;;;;;;;;;;;;16.05;100.00;99425.97;4438540;32;34521;-78
2022/09/30 13:17:11;;;;;;;;;;;;;;;16.34;100.00;99431.13;4439058;32;36270;-77
2022/09/30 13:19:58;;;;;;;;;;;;;;;16.32;100.00;99429.87;4450218;32;34410;-80
2022/09/30 13:22:44;;;;;;;;;;;;;;;15.91;100.00;99446.53;4450561;32;32931;-77
2022/09/30 13:25:50;;;;;;;;;;;;;;;15.93;100.00;99446.19;4448621;32;35063;-77
2022/09/30 13:28:36;;;;;;;;;;;;;;;16.11;100.00;99453.03;4449874;32;34999;-77
2022/09/30 13:31:23;;;;;;;;;;;;;;;15.76;100.00;99463.84;4425877;32;35738;-78
2022/09/30 13:34:11;;;;;;;;;;;;;;;16.03;100.00;99476.09;4423416;32;34142;-77
2022/09/30 13:37:17;;;;;;;;;;;;;;;16.68;100.00;99477.81;4423064;32;35007;-79
2022/09/30 13:40:05;;;;;;;;;;;;;;;15.90;100.00;99491.09;4450125;32;35178;-78
2022/09/30 13:42:52;;;;;;;;;;;;;;;16.25;100.00;99491.31;4438665;32;34755;-76
2022/09/30 13:45:38;;;;;;;;;;;;;;;16.37;100.00;99487.69;4438508;32;33793;-77
2022/09/30 13:48:27;;;;;;;;;;;;;;;16.31;100.00;99489.09;4438139;32;35780;-77
2022/09/30 13:51:13;;;;;;;;;;;;;;;16.44;100.00;99485.09;4437797;32;36145;-76
2022/09/30 13:54:02;;;;;;;;;;;;;;;16.00;100.00;99485.09;4438316;32;35733;-76
2022/09/30 13:56:48;;;;;;;;;;;;;;;16.83;100.00;99477.88;4438253;32;33679;-77
2022/09/30 13:59:53;;;;;;;;;;;;;;;16.80;100.00;99472.25;4450127;32;34687;-78
2022/09/30 14:02:45;;;;;;;;;;;;;;;17.68;100.00;99471.94;4438360;32;35227;-79
2022/09/30 14:05:36;;;;;;;;;;;;;;;17.74;100.00;99462.16;4450101;32;34968;-78
2022/09/30 14:08:26;;;;;;;;;;;;;;;17.47;100.00;99459.19;4435788;32;34077;-77